Cruz Bay, VI (00830)

10:00 PM AST on July 25, 2016 (GMT -0400)
Great Cruz Bay, St John | | Change Station

Elev 59 ft 18.33 °N, 64.79 °W | Updated 31 seconds ago

Scattered Clouds
Scattered Clouds
81.6 °F
Feels Like 88 °F
N
2.0
Wind Variable Wind from East
Gusts 7.0 mph

Today
High -- | Low -- °F
--% Chance of Precip.
Yesterday
High -- | Low -- °F
Precip. -- in
Pressure 30.02 in
Visibility 10.0 miles
Clouds Few 2400 ft
Scattered Clouds 7000 ft
Heat Index 88 °F
Dew Point 76 °F
Humidity 82%
Rainfall 0.00 in
Snow Depth Not available.
5:54 AM 6:56 PM
Waning Gibbous, 60% visible
METAR TIST 260153Z 06008G16KT 10SM FEW024 SCT070 29/25 A3002 RMK AO2 SLP165 T02890250 $
Pressure 30.02 in
Visibility 10.0 miles
Clouds Few 2400 ft
Scattered Clouds 7000 ft
Heat Index 88 °F
Dew Point 76 °F
Humidity 82%
Rainfall 0.00 in
Snow Depth Not available.
5:54 AM 6:56 PM
Waning Gibbous, 60% visible
METAR TIST 260153Z 06008G16KT 10SM FEW024 SCT070 29/25 A3002 RMK AO2 SLP165 T02890250 $

10-Day Weather Forecast

Almanac

Astronomy

Jul. 25, 2016 Rise Set
Actual Time
Civil Twilight
Nautical Twilight
Astronomical Twilight
Moon
Length of Visible Light
Length of Day
Tomorrow will be .
, % of the Moon is Illuminated

Today's Extremes

State Highs State Lows

Community

WunderPhotos

Upload Photos

1,927,497 photos uploaded!

WunderBlog® & News

Nearby

Air Quality

  Air Quality AQ Index Pollutant
Not available.

Snow Depth

Station Depth Elevation

Earthquake Activity

City Distance Mag. Time & Date
Minimum magnitude displayed is 2.5.

Coastal Water Temperatures

Place Temperature

Stations

Nearby Weather Stations

Station Location Temp. Windchill Dew Point Humidity Wind Precip. Elev Updated Type
                   

Watches & Warnings

There are currently no watches in effect.